Time;durP1;ratioP1;P1;durP2;ratioP2;P2;SDS_P1;SDS_P2;PMS_P1;PMS_P2;Temp;Humidity;BMP_temperature;BMP_pressure;BME280_temperature;BME280_humidity;BME280_pressure;Samples;Min_cycle;Max_cycle;Signal;HPM_P1;HPM_P2
2022/07/07 00:01:11;;;;;;;9.85;3.75;;;;;;;24.07;95.48;100504.56;4994372;28;20193;-83
2022/07/07 00:04:02;;;;;;;5.95;3.58;;;;;;;24.01;96.62;100502.88;5011291;28;20045;-87
2022/07/07 00:06:28;;;;;;;13.70;3.90;;;;;;;24.01;96.44;100493.94;5011550;28;20038;-85
2022/07/07 00:08:58;;;;;;;7.40;3.95;;;;;;;24.07;96.38;100496.44;5010724;28;20038;-81
2022/07/07 00:11:27;;;;;;;10.35;2.83;;;;;;;23.95;96.28;100490.34;4995762;28;20389;-76
2022/07/07 00:14:07;;;;;;;6.25;2.90;;;;;;;23.81;96.92;100494.47;5007296;23;20039;-82
2022/07/07 00:17:03;;;;;;;8.85;3.50;;;;;;;23.55;98.71;100489.75;4994053;28;20073;-81
2022/07/07 00:19:31;;;;;;;9.95;3.03;;;;;;;23.56;99.02;100475.19;4991594;28;20039;-81
2022/07/07 00:22:03;;;;;;;5.85;2.97;;;;;;;23.51;99.03;100475.91;4993626;28;20066;-80
2022/07/07 00:24:28;;;;;;;6.60;2.55;;;;;;;23.45;99.25;100468.78;4993855;28;20063;-81
2022/07/07 00:27:00;;;;;;;9.23;3.20;;;;;;;23.44;99.23;100467.13;4995205;28;20031;-79
2022/07/07 00:31:55;;;;;;;9.18;3.40;;;;;;;23.36;99.45;100464.00;5010284;28;20077;-78
2022/07/07 00:34:20;;;;;;;11.07;3.03;;;;;;;23.43;98.36;100467.41;5014057;28;20113;-82
2022/07/07 00:36:50;;;;;;;6.63;3.10;;;;;;;23.42;98.47;100469.28;5013595;28;20072;-78
2022/07/07 00:39:16;;;;;;;7.00;3.13;;;;;;;23.40;98.66;100474.09;4996730;28;20062;-86
2022/07/07 00:41:54;;;;;;;5.75;2.47;;;;;;;23.36;99.34;100474.84;5013479;28;20186;-80
2022/07/07 00:44:26;;;;;;;6.47;3.08;;;;;;;23.36;99.96;100478.38;5069742;23;20042;-78
2022/07/07 00:47:18;;;;;;;5.23;2.87;;;;;;;23.35;99.84;100481.31;5001898;28;20074;-79
2022/07/07 00:49:54;;;;;;;6.10;3.17;;;;;;;23.35;99.57;100481.31;5014182;28;20050;-79
2022/07/07 00:58:28;;;;;;;5.70;3.38;;;;;;;23.25;100.00;100478.44;4993519;28;20082;-78
2022/07/07 01:01:18;;;;;;;11.48;3.58;;;;;;;23.25;99.88;100481.13;4994775;28;20049;-81
2022/07/07 01:04:11;;;;;;;9.40;3.70;;;;;;;23.23;100.00;100481.41;4975911;28;20038;-80
2022/07/07 01:06:58;;;;;;;7.28;3.10;;;;;;;23.35;98.91;100478.59;4958620;28;20047;-82
2022/07/07 01:09:31;;;;;;;5.97;2.95;;;;;;;23.40;98.86;100474.09;4991937;28;20051;-77
2022/07/07 01:12:03;;;;;;;6.18;3.10;;;;;;;23.34;98.43;100471.53;4944918;28;20031;-82
2022/07/07 01:14:58;;;;;;;6.65;3.15;;;;;;;23.17;100.00;100461.53;4993342;28;20043;-80
2022/07/07 01:20:13;;;;;;;4.28;2.60;;;;;;;23.12;99.52;100463.34;4777628;26;20070;-83
2022/07/07 01:22:55;;;;;;;5.90;2.53;;;;;;;23.20;98.41;100462.94;4991605;28;20035;-84
2022/07/07 01:25:25;;;;;;;4.53;2.67;;;;;;;23.23;98.32;100464.34;4992199;28;20027;-82
2022/07/07 01:27:54;;;;;;;5.43;2.67;;;;;;;23.24;98.42;100469.50;4991894;28;20027;-80
2022/07/07 01:30:28;;;;;;;7.80;2.92;;;;;;;23.27;98.29;100465.50;4989936;28;20106;-80
2022/07/07 01:32:54;;;;;;;8.82;2.90;;;;;;;23.32;97.89;100476.38;5003122;23;20061;-77
2022/07/07 01:35:22;;;;;;;4.90;2.90;;;;;;;23.35;97.14;100478.59;5011017;28;20078;-80
2022/07/07 01:38:07;;;;;;;7.45;2.88;;;;;;;23.44;96.52;100477.13;5012015;28;20037;-80
2022/07/07 01:40:42;;;;;;;7.63;2.72;;;;;;;23.32;97.81;100479.09;4996409;28;20049;-84
2022/07/07 01:43:14;;;;;;;5.47;2.80;;;;;;;23.26;97.51;100471.97;5012143;28;20065;-85
2022/07/07 01:48:28;;;;;;;3.80;2.88;;;;;;;22.89;99.76;100468.91;4714684;26;19906;-82
2022/07/07 01:50:57;;;;;;;8.52;3.20;;;;;;;22.94;99.96;100472.50;4977051;28;20047;-81
2022/07/07 01:53:25;;;;;;;8.75;3.10;;;;;;;22.92;100.00;100469.25;5007940;28;20027;-85
2022/07/07 02:02:29;;;;;;;7.22;2.88;;;;;;;23.09;99.00;100474.66;5011788;28;20030;-78
2022/07/07 02:04:54;;;;;;;8.38;2.90;;;;;;;23.03;98.93;100460.25;4995912;28;20018;-79
2022/07/07 02:07:50;;;;;;;6.78;2.90;;;;;;;22.93;99.91;100464.66;5019896;23;20038;-78
2022/07/07 02:13:33;;;;;;;6.53;3.30;;;;;;;22.78;100.00;100459.81;4546165;23;20050;-78
2022/07/07 02:16:08;;;;;;;8.73;2.83;;;;;;;22.89;100.00;100463.50;5016319;28;20022;-78
2022/07/07 02:18:48;;;;;;;5.50;3.00;;;;;;;22.85;100.00;100460.47;5022237;23;20025;-76
2022/07/07 02:21:16;;;;;;;9.10;2.58;;;;;;;22.81;100.00;100466.59;4997147;28;20042;-81
2022/07/07 02:24:11;;;;;;;7.70;3.03;;;;;;;22.70;100.00;100449.41;5006378;23;20038;-80
2022/07/07 02:26:57;;;;;;;6.60;3.20;;;;;;;22.59;100.00;100459.16;5014932;28;20030;-81
2022/07/07 02:29:26;;;;;;;6.07;3.47;;;;;;;22.62;100.00;100464.09;5015701;28;20026;-82
2022/07/07 02:31:51;;;;;;;5.22;3.47;;;;;;;22.64;100.00;100472.75;5016997;28;20030;-78
2022/07/07 02:34:17;;;;;;;6.05;3.20;;;;;;;22.66;100.00;100488.78;5015509;28;20034;-80
2022/07/07 02:36:49;;;;;;;10.13;3.83;;;;;;;22.67;100.00;100485.81;5015685;28;20041;-78
2022/07/07 02:42:11;;;;;;;11.95;6.72;;;;;;;22.67;100.00;100487.69;4993550;28;20051;-78
2022/07/07 02:44:43;;;;;;;11.60;5.75;;;;;;;22.68;100.00;100486.63;4996138;28;20101;-78
2022/07/07 02:47:48;;;;;;;11.52;3.95;;;;;;;22.68;100.00;100483.94;5011888;28;20018;-78
2022/07/07 02:53:00;;;;;;;9.57;4.22;;;;;;;22.69;100.00;100474.78;4976382;29;20063;-79
2022/07/07 02:55:31;;;;;;;7.35;4.40;;;;;;;22.45;100.00;100474.03;4977647;29;20099;-82
2022/07/07 02:58:04;;;;;;;8.90;4.45;;;;;;;22.33;100.00;100470.56;4976620;29;20114;-80
2022/07/07 03:00:35;;;;;;;8.02;4.78;;;;;;;22.22;100.00;100473.28;4978602;29;20015;-79
2022/07/07 03:03:23;;;;;;;8.80;3.88;;;;;;;22.13;100.00;100470.13;4976194;29;20043;-79
2022/07/07 03:05:59;;;;;;;11.07;3.10;;;;;;;22.19;100.00;100471.06;4973538;29;20044;-80
2022/07/07 03:08:27;;;;;;;8.50;3.28;;;;;;;22.17;100.00;100477.50;4977986;29;20046;-79
2022/07/07 03:10:53;;;;;;;7.00;3.40;;;;;;;22.22;100.00;100475.97;4977886;29;20031;-79
2022/07/07 03:13:19;;;;;;;4.30;2.53;;;;;;;22.13;100.00;100476.38;4976247;29;20058;-78
2022/07/07 03:15:47;;;;;;;7.30;3.10;;;;;;;22.09;100.00;100466.28;4976695;28;20039;-78
2022/07/07 03:18:35;;;;;;;10.15;3.83;;;;;;;22.03;100.00;100465.34;5013600;23;20058;-78
2022/07/07 03:21:12;;;;;;;9.88;3.45;;;;;;;22.12;100.00;100468.50;5013590;28;20053;-79
2022/07/07 03:23:59;;;;;;;8.63;2.60;;;;;;;22.19;100.00;100473.75;5016550;28;20034;-82
2022/07/07 03:26:25;;;;;;;3.60;2.83;;;;;;;22.10;100.00;100470.63;5015852;28;20042;-82
2022/07/07 03:28:59;;;;;;;8.15;2.75;;;;;;;21.89;100.00;100477.47;5016756;28;20042;-76
2022/07/07 03:31:31;;;;;;;8.98;3.35;;;;;;;21.79;100.00;100479.91;5022829;23;20037;-80
2022/07/07 03:33:57;;;;;;;5.20;2.77;;;;;;;21.80;100.00;100486.94;5000903;28;20110;-80
2022/07/07 03:36:27;;;;;;;5.47;3.10;;;;;;;21.80;100.00;100489.66;5015126;28;20357;-78
2022/07/07 03:39:23;;;;;;;9.07;3.55;;;;;;;21.81;100.00;100493.97;5016741;23;20051;-78
2022/07/07 03:41:57;;;;;;;5.30;3.17;;;;;;;21.84;100.00;100484.59;5014218;28;20053;-77
2022/07/07 03:44:35;;;;;;;5.57;2.83;;;;;;;21.81;100.00;100490.47;5013260;28;20110;-77
2022/07/07 03:47:29;;;;;;;4.70;2.88;;;;;;;21.71;100.00;100485.66;5016470;28;20042;-78
2022/07/07 03:49:55;;;;;;;9.45;3.50;;;;;;;21.70;100.00;100486.72;5001553;28;20035;-78
2022/07/07 03:52:21;;;;;;;4.63;2.75;;;;;;;21.63;100.00;100481.44;4984793;28;20074;-80
2022/07/07 03:54:50;;;;;;;10.40;3.95;;;;;;;21.58;100.00;100481.31;5000292;28;20037;-81
2022/07/07 03:57:17;;;;;;;5.47;3.50;;;;;;;21.57;100.00;100489.66;5016707;28;20046;-83
2022/07/07 03:59:45;;;;;;;7.13;3.90;;;;;;;21.57;100.00;100482.41;4999472;28;20030;-80
2022/07/07 04:02:11;;;;;;;8.48;4.00;;;;;;;21.59;100.00;100484.84;4998535;28;20045;-83
2022/07/07 04:04:40;;;;;;;11.93;3.30;;;;;;;21.63;100.00;100484.16;4984627;28;20038;-79
2022/07/07 04:07:08;;;;;;;8.50;4.13;;;;;;;21.57;100.00;100487.78;5016793;28;20038;-83
2022/07/07 04:09:46;;;;;;;8.45;4.72;;;;;;;21.56;100.00;100491.53;5023261;23;20034;-83
2022/07/07 04:12:15;;;;;;;9.45;5.15;;;;;;;21.52;100.00;100494.91;5017300;28;20049;-80
2022/07/07 04:15:02;;;;;;;8.23;4.40;;;;;;;21.61;100.00;100502.41;5014594;28;20030;-81
2022/07/07 04:17:30;;;;;;;5.05;4.55;;;;;;;21.75;100.00;100505.72;5001867;28;20050;-89
2022/07/07 04:20:13;;;;;;;8.68;3.92;;;;;;;21.81;100.00;100514.75;5017142;28;20053;-79
2022/07/07 04:25:34;;;;;;;7.23;4.50;;;;;;;21.84;100.00;100517.78;3144030;26;20049;-77
2022/07/07 04:28:18;;;;;;;18.92;5.25;;;;;;;21.99;100.00;100520.03;5029943;28;20837;-82
2022/07/07 04:30:51;;;;;;;14.77;5.32;;;;;;;21.95;100.00;100511.59;5033826;28;20014;-83
2022/07/07 04:33:19;;;;;;;9.90;4.50;;;;;;;21.83;100.00;100518.84;5018207;28;20117;-79
2022/07/07 04:36:17;;;;;;;7.95;3.67;;;;;;;21.91;100.00;100521.22;5018394;28;20041;-81
2022/07/07 04:39:17;;;;;;;9.63;4.07;;;;;;;21.67;100.00;100519.56;5034135;28;20053;-79
2022/07/07 04:41:48;;;;;;;11.52;3.90;;;;;;;21.56;100.00;100523.06;5033070;28;20056;-84
2022/07/07 04:47:55;;;;;;;9.25;3.10;;;;;;;21.71;100.00;100519.91;5036844;28;20045;-81
2022/07/07 04:50:33;;;;;;;5.35;3.28;;;;;;;21.69;100.00;100519.31;5029626;28;20041;-82
2022/07/07 05:18:25;;;;;;;5.80;4.45;;;;;;;22.37;100.00;100546.50;5011834;28;20061;-81
2022/07/07 05:27:44;;;;;;;13.10;6.03;;;;;;;22.81;100.00;100572.81;5023326;23;20114;-80
2022/07/07 05:31:18;;;;;;;10.10;6.85;;;;;;;23.03;99.24;100581.09;5016991;28;20041;-85
2022/07/07 05:40:42;;;;;;;13.80;7.78;;;;;;;23.01;100.00;100591.31;5024971;23;20124;-85
2022/07/07 05:43:28;;;;;;;15.02;7.85;;;;;;;23.12;99.65;100596.66;5019254;28;20046;-79
2022/07/07 05:46:53;;;;;;;14.82;7.63;;;;;;;23.03;100.00;100598.13;5021664;28;20046;-78
2022/07/07 05:49:38;;;;;;;17.17;8.20;;;;;;;23.24;100.00;100603.88;5016155;28;20046;-79
2022/07/07 05:55:39;;;;;;;16.97;9.03;;;;;;;23.42;100.00;100606.41;3125805;26;20027;-81
2022/07/07 06:01:32;;;;;;;14.25;7.15;;;;;;;23.72;97.79;100609.63;4739781;26;20046;-80
2022/07/07 06:04:20;;;;;;;20.75;7.22;;;;;;;23.42;98.99;100614.53;5132605;23;20026;-80
2022/07/07 06:07:33;;;;;;;13.55;6.97;;;;;;;23.63;95.88;100616.53;5039581;23;20142;-78
2022/07/07 06:15:13;;;;;;;11.65;7.05;;;;;;;23.72;92.61;100619.66;5021567;28;20057;-81
2022/07/07 06:18:05;;;;;;;16.33;6.95;;;;;;;24.15;89.58;100628.75;5021197;28;20030;-83
2022/07/07 06:26:08;;;;;;;9.57;7.53;;;;;;;24.56;77.25;100643.69;3013199;23;20050;-78
2022/07/07 06:34:13;;;;;;;13.00;7.43;;;;;;;25.24;72.18;100641.53;4153804;26;20633;-80
2022/07/07 06:36:48;;;;;;;11.43;6.72;;;;;;;25.43;71.16;100653.66;5020769;23;20478;-83
2022/07/07 06:39:33;;;;;;;11.90;6.72;;;;;;;25.77;68.47;100638.00;5011809;28;20034;-78
2022/07/07 06:42:03;;;;;;;12.57;7.18;;;;;;;25.81;67.45;100656.25;5000175;28;20054;-77
2022/07/07 06:44:39;;;;;;;11.80;5.75;;;;;;;26.27;66.04;100630.25;5013343;28;20050;-79
2022/07/07 06:47:17;;;;;;;9.35;5.38;;;;;;;27.33;61.42;100652.47;5013570;28;20091;-79
2022/07/07 06:49:45;;;;;;;10.07;5.40;;;;;;;26.66;60.88;100638.88;5011815;28;20037;-80
2022/07/07 06:52:38;;;;;;;10.40;4.68;;;;;;;26.52;62.24;100638.53;5007292;28;20029;-78
2022/07/07 06:55:10;;;;;;;10.40;5.50;;;;;;;26.30;62.71;100646.03;5005488;28;20132;-77
2022/07/07 06:57:41;;;;;;;10.80;5.40;;;;;;;27.04;59.76;100649.41;4988300;28;20053;-77
2022/07/07 07:00:10;;;;;;;11.88;6.07;;;;;;;26.55;61.56;100639.91;4991714;28;20050;-77
2022/07/07 07:02:41;;;;;;;8.10;5.60;;;;;;;26.62;62.00;100648.63;5008419;28;20030;-78
2022/07/07 07:05:07;;;;;;;11.63;5.63;;;;;;;26.28;63.00;100644.66;5006331;28;20096;-78
2022/07/07 07:07:35;;;;;;;11.30;5.90;;;;;;;25.88;66.45;100635.13;5005695;28;20042;-76
2022/07/07 07:10:04;;;;;;;12.65;5.93;;;;;;;26.39;63.99;100635.47;4992344;28;20049;-76
2022/07/07 07:12:58;;;;;;;15.65;5.95;;;;;;;26.54;62.98;100638.28;4988067;28;20042;-79
2022/07/07 07:15:27;;;;;;;13.45;6.03;;;;;;;26.84;61.75;100637.63;5008909;28;20037;-81
2022/07/07 07:17:53;;;;;;;10.35;6.50;;;;;;;26.69;62.61;100631.00;5006514;28;20030;-78
2022/07/07 07:20:18;;;;;;;12.15;5.80;;;;;;;26.66;63.39;100631.53;5006354;28;20053;-76
2022/07/07 07:22:48;;;;;;;9.73;6.20;;;;;;;26.94;62.02;100633.03;4985796;28;20042;-78
2022/07/07 07:25:15;;;;;;;10.88;5.93;;;;;;;26.58;64.30;100623.88;5008262;28;20034;-78
2022/07/07 07:27:45;;;;;;;12.45;6.22;;;;;;;27.08;62.93;100627.88;5006654;28;20034;-77
2022/07/07 07:30:14;;;;;;;13.57;6.30;;;;;;;26.84;63.73;100619.41;5009632;28;20039;-81
2022/07/07 07:32:40;;;;;;;10.32;6.32;;;;;;;27.10;62.56;100621.13;5005795;28;20058;-78
2022/07/07 07:35:12;;;;;;;13.80;6.80;;;;;;;27.97;58.59;100625.56;5005433;28;20042;-78
2022/07/07 07:37:40;;;;;;;11.25;6.82;;;;;;;27.85;59.21;100610.56;5004916;28;20061;-79
2022/07/07 07:40:12;;;;;;;12.02;5.88;;;;;;;27.78;59.20;100620.94;5013687;22;20128;-79
2022/07/07 07:43:10;;;;;;;14.38;6.10;;;;;;;27.54;60.04;100616.03;5005069;28;20041;-79
2022/07/07 07:45:38;;;;;;;12.70;6.50;;;;;;;27.30;61.91;100611.34;5006593;28;20061;-75
2022/07/07 07:48:08;;;;;;;12.68;6.90;;;;;;;27.74;60.26;100602.41;5003620;28;20042;-77
2022/07/07 07:50:34;;;;;;;11.98;6.35;;;;;;;27.54;61.44;100601.63;5002025;28;20034;-77
2022/07/07 07:53:04;;;;;;;13.52;6.55;;;;;;;27.93;60.13;100599.97;5003485;28;20197;-78
2022/07/07 07:55:31;;;;;;;14.10;7.80;;;;;;;27.49;62.11;100612.50;5004084;28;20042;-79
2022/07/07 07:57:57;;;;;;;15.85;8.07;;;;;;;27.61;61.31;100613.84;5005391;28;20034;-81
2022/07/07 08:00:25;;;;;;;10.75;7.95;;;;;;;27.66;61.68;100613.03;5004522;28;20042;-79
2022/07/07 08:02:51;;;;;;;9.77;6.80;;;;;;;28.05;60.41;100605.94;5005460;28;20038;-78
2022/07/07 08:05:19;;;;;;;9.82;6.65;;;;;;;28.12;60.38;100606.50;5004876;28;20103;-80
2022/07/07 08:07:45;;;;;;;12.85;6.80;;;;;;;27.92;61.84;100590.16;5007834;28;20014;-80
2022/07/07 08:10:16;;;;;;;10.23;7.25;;;;;;;28.48;58.94;100614.56;5005864;28;20049;-80
2022/07/07 08:13:09;;;;;;;12.23;6.85;;;;;;;28.67;59.08;100610.16;5022943;28;20038;-80
2022/07/07 08:15:40;;;;;;;19.23;6.72;;;;;;;28.82;57.08;100612.00;5023187;28;20045;-79
2022/07/07 08:18:06;;;;;;;8.93;5.18;;;;;;;29.41;55.26;100606.47;5029909;28;20040;-81
2022/07/07 08:20:35;;;;;;;8.30;5.38;;;;;;;28.96;56.87;100611.13;5009707;28;20058;-81
2022/07/07 08:23:07;;;;;;;13.13;6.15;;;;;;;28.95;56.33;100606.75;5021454;28;20057;-80
2022/07/07 08:25:33;;;;;;;10.25;5.30;;;;;;;29.08;56.32;100602.59;5008145;28;20038;-80
2022/07/07 08:28:00;;;;;;;13.32;5.20;;;;;;;29.09;55.99;100605.03;5005619;28;20053;-78
2022/07/07 08:30:25;;;;;;;13.07;5.75;;;;;;;28.90;57.01;100601.31;4973789;28;20042;-81
2022/07/07 08:32:52;;;;;;;9.35;5.75;;;;;;;28.61;56.90;100603.88;5005745;28;20093;-79
2022/07/07 08:35:17;;;;;;;10.38;4.60;;;;;;;28.88;56.12;100597.25;5009243;28;20121;-81
2022/07/07 08:37:43;;;;;;;13.82;4.28;;;;;;;29.64;53.48;100605.75;5009129;28;20568;-80
2022/07/07 08:40:10;;;;;;;9.93;4.60;;;;;;;29.69;52.64;100605.72;5015433;28;20038;-77
2022/07/07 08:42:36;;;;;;;12.25;4.85;;;;;;;30.20;50.44;100597.84;5006463;28;20042;-79
2022/07/07 08:45:02;;;;;;;11.43;4.10;;;;;;;30.15;51.13;100590.53;5006187;28;20088;-80
2022/07/07 08:47:28;;;;;;;12.05;4.78;;;;;;;29.35;52.46;100591.25;5008019;28;20049;-81
2022/07/07 08:49:57;;;;;;;8.35;4.45;;;;;;;29.48;51.79;100587.84;5006673;28;20042;-78
2022/07/07 08:52:23;;;;;;;8.35;4.30;;;;;;;29.57;51.93;100583.41;5004738;28;20022;-80
2022/07/07 08:54:49;;;;;;;10.93;4.65;;;;;;;29.80;51.37;100570.94;5004777;28;20046;-80
2022/07/07 08:57:15;;;;;;;9.73;4.80;;;;;;;29.56;52.79;100568.97;5004692;28;20041;-80
2022/07/07 08:59:43;;;;;;;8.43;4.90;;;;;;;29.82;51.00;100575.00;5005701;28;20042;-78
2022/07/07 09:02:09;;;;;;;10.68;4.63;;;;;;;29.82;51.85;100572.28;5007197;28;20039;-83
2022/07/07 09:04:35;;;;;;;10.23;4.70;;;;;;;29.87;51.26;100572.25;4989229;28;20041;-83
2022/07/07 09:07:04;;;;;;;7.93;3.30;;;;;;;30.31;50.00;100569.31;5006047;28;20049;-82
2022/07/07 09:09:55;;;;;;;7.68;2.88;;;;;;;30.11;49.67;100570.34;5005635;28;20103;-82
2022/07/07 09:12:21;;;;;;;5.43;3.03;;;;;;;30.07;48.47;100574.75;5005453;28;20042;-81
2022/07/07 09:14:52;;;;;;;6.60;2.97;;;;;;;29.67;49.29;100584.13;5008179;28;20034;-79
2022/07/07 09:17:33;;;;;;;6.80;2.90;;;;;;;30.06;48.33;100575.06;5026780;28;20045;-78
2022/07/07 09:20:18;;;;;;;4.20;2.47;;;;;;;30.25;49.17;100576.75;5028130;28;20041;-81
2022/07/07 09:22:50;;;;;;;10.57;3.20;;;;;;;31.05;47.51;100582.34;5028570;28;20061;-79
2022/07/07 09:27:58;;;;;;;7.33;3.07;;;;;;;31.02;47.30;100568.44;4969196;29;20047;-79
2022/07/07 09:30:53;;;;;;;9.32;2.20;;;;;;;30.70;47.03;100569.09;4970336;29;20317;-79
2022/07/07 09:33:22;;;;;;;14.65;3.33;;;;;;;30.04;47.97;100567.16;4973379;28;20043;-81
2022/07/07 09:39:06;;;;;;;5.82;2.25;;;;;;;30.48;48.71;100561.47;4972032;29;20571;-85
2022/07/07 09:41:36;;;;;;;7.90;2.10;;;;;;;31.26;45.88;100591.88;4965915;28;20048;-81
2022/07/07 09:44:03;;;;;;;4.53;2.08;;;;;;;31.30;43.28;100577.56;4944887;29;20048;-81
2022/07/07 09:46:35;;;;;;;6.15;1.50;;;;;;;31.67;42.21;100572.06;4947778;28;20040;-81
2022/07/07 09:49:02;;;;;;;5.28;2.33;;;;;;;31.39;43.69;100582.06;4967959;29;20030;-78
2022/07/07 09:51:32;;;;;;;3.95;1.90;;;;;;;31.51;43.03;100570.69;4967726;29;20027;-78
2022/07/07 09:54:10;;;;;;;3.58;1.85;;;;;;;31.58;43.33;100565.66;4967116;28;20054;-78
2022/07/07 09:56:42;;;;;;;5.55;2.70;;;;;;;31.21;43.91;100586.47;4968924;29;20039;-78
2022/07/07 09:59:14;;;;;;;5.77;2.23;;;;;;;30.81;45.06;100576.09;4970098;28;20047;-82
2022/07/07 10:01:44;;;;;;;;;;;;;;;30.82;45.47;100583.19;4952871;29;20448;-77
2022/07/07 10:04:13;;;;;;;8.13;2.40;;;;;;;30.98;43.95;100570.94;4959846;29;19922;-79
2022/07/07 10:06:41;;;;;;;7.47;1.65;;;;;;;31.68;42.16;100573.69;4953969;28;20051;-80
2022/07/07 10:09:12;;;;;;;4.97;2.90;;;;;;;31.03;43.04;100572.78;4963929;29;20458;-79
2022/07/07 10:11:39;;;;;;;6.30;2.63;;;;;;;30.50;44.20;100563.91;4969795;28;20034;-79
2022/07/07 10:14:14;;;;;;;4.60;2.38;;;;;;;30.87;44.41;100555.75;4989747;28;20031;-79
2022/07/07 10:16:43;;;;;;;5.60;2.50;;;;;;;31.00;43.24;100563.25;4989488;28;20039;-77
2022/07/07 10:19:11;;;;;;;5.97;2.20;;;;;;;30.83;44.88;100551.13;4989682;28;20038;-77
2022/07/07 10:21:42;;;;;;;5.20;2.42;;;;;;;31.00;43.91;100560.50;4992451;28;20035;-80
2022/07/07 10:24:12;;;;;;;4.67;2.20;;;;;;;31.17;42.24;100555.31;4963339;29;20055;-76
2022/07/07 10:26:52;;;;;;;5.90;2.10;;;;;;;31.16;41.26;100545.47;4960598;29;20020;-79
2022/07/07 10:29:39;;;;;;;9.85;2.00;;;;;;;31.29;40.78;100543.09;4976852;28;20106;-80
2022/07/07 10:32:13;;;;;;;6.57;2.00;;;;;;;31.82;40.88;100541.63;4967708;29;20043;-80
2022/07/07 10:34:50;;;;;;;5.55;2.20;;;;;;;32.19;40.54;100562.59;4954083;28;20124;-80
2022/07/07 10:37:21;;;;;;;6.82;2.22;;;;;;;31.62;41.89;100552.97;4969562;29;20054;-79
2022/07/07 10:39:56;;;;;;;6.28;1.88;;;;;;;31.89;42.17;100533.81;4949723;29;20067;-79
2022/07/07 10:42:37;;;;;;;4.53;2.00;;;;;;;31.76;41.46;100534.63;4949853;29;20079;-79
2022/07/07 10:45:05;;;;;;;4.72;2.13;;;;;;;31.99;40.90;100533.63;4950738;29;20108;-83
2022/07/07 10:47:38;;;;;;;5.07;2.10;;;;;;;32.08;39.42;100540.09;4955272;28;20040;-80
2022/07/07 10:50:30;;;;;;;2.67;1.70;;;;;;;32.82;38.21;100540.72;4969221;29;20044;-77
2022/07/07 10:52:59;;;;;;;4.73;2.13;;;;;;;32.53;38.89;100540.25;4968734;29;20047;-77
2022/07/07 10:55:58;;;;;;;9.98;2.63;;;;;;;32.34;39.06;100525.84;4967753;29;20039;-80
2022/07/07 10:58:57;;;;;;;6.50;2.05;;;;;;;31.91;39.63;100517.06;4968685;28;20504;-82
2022/07/07 11:01:30;;;;;;;6.88;2.13;;;;;;;31.59;41.08;100498.75;4874905;29;20049;-81
2022/07/07 11:03:56;;;;;;;6.90;2.13;;;;;;;31.97;40.56;100493.94;4853000;29;20140;-82
2022/07/07 11:06:54;;;;;;;7.97;2.17;;;;;;;31.75;37.94;100506.38;4858559;29;20050;-78
2022/07/07 11:09:22;;;;;;;7.72;1.50;;;;;;;32.15;36.41;100491.09;4858113;29;20069;-80
2022/07/07 11:12:43;;;;;;;10.10;1.70;;;;;;;32.73;35.70;100506.88;4927830;29;20047;-79
2022/07/07 11:15:36;;;;;;;6.53;1.55;;;;;;;33.31;35.79;100500.59;4891319;29;20037;-77
2022/07/07 11:18:07;;;;;;;8.07;1.55;;;;;;;32.90;35.01;100507.03;4946425;29;20059;-81
2022/07/07 11:20:33;;;;;;;7.55;1.70;;;;;;;33.21;35.76;100496.94;4951561;29;20042;-80
2022/07/07 11:23:09;;;;;;;6.45;1.70;;;;;;;32.85;35.30;100498.91;4959054;28;20035;-79
2022/07/07 11:25:39;;;;;;;6.57;2.00;;;;;;;33.18;33.73;100496.75;4989533;28;20047;-81
2022/07/07 11:28:17;;;;;;;6.65;1.50;;;;;;;33.10;34.68;100484.59;4992518;28;20394;-81
2022/07/07 11:30:48;;;;;;;8.98;1.38;;;;;;;33.27;34.65;100478.41;4989498;28;20527;-83
2022/07/07 11:33:13;;;;;;;6.03;1.80;;;;;;;33.51;34.74;100483.56;4984319;28;20051;-80
2022/07/07 11:35:45;;;;;;;7.43;1.60;;;;;;;32.95;35.96;100468.47;4972999;28;20045;-82
2022/07/07 11:38:17;;;;;;;6.75;1.70;;;;;;;32.75;36.56;100460.72;4989357;28;20045;-83
2022/07/07 11:40:47;;;;;;;5.05;1.70;;;;;;;32.19;37.76;100459.19;4965239;28;20043;-81
2022/07/07 11:43:34;;;;;;;4.00;1.83;;;;;;;31.93;38.54;100469.03;4963352;28;20031;-81
2022/07/07 11:46:00;;;;;;;6.72;1.40;;;;;;;31.67;39.79;100446.00;4966858;28;20051;-77
2022/07/07 11:48:33;;;;;;;5.10;1.67;;;;;;;31.63;38.95;100442.22;4948355;28;20040;-80
2022/07/07 11:50:59;;;;;;;3.33;1.75;;;;;;;31.65;39.07;100442.75;4958110;29;20047;-78
2022/07/07 11:53:26;;;;;;;6.63;1.52;;;;;;;31.30;37.89;100444.19;4966382;29;20046;-81
2022/07/07 11:55:55;;;;;;;7.03;1.70;;;;;;;31.17;38.15;100448.53;4959519;28;20031;-80
2022/07/07 11:58:21;;;;;;;3.03;1.42;;;;;;;31.12;40.07;100423.94;4959574;29;20123;-79
2022/07/07 12:00:47;;;;;;;4.22;1.70;;;;;;;31.15;40.94;100423.38;4968226;28;20039;-78
2022/07/07 12:03:12;;;;;;;6.80;1.75;;;;;;;31.01;41.20;100428.00;4927852;29;20047;-79
2022/07/07 12:05:46;;;;;;;12.57;2.03;;;;;;;31.00;40.10;100418.16;4965693;29;20055;-79
2022/07/07 12:08:18;;;;;;;3.42;1.45;;;;;;;30.86;40.66;100414.50;4950757;29;20051;-82
2022/07/07 12:10:52;;;;;;;4.63;1.60;;;;;;;30.91;39.83;100403.50;4953224;29;20404;-80
2022/07/07 12:13:37;;;;;;;15.48;1.85;;;;;;;30.99;40.00;100413.78;4954863;29;20115;-81
2022/07/07 12:16:09;;;;;;;4.65;1.25;;;;;;;31.02;39.44;100424.16;4954878;29;20046;-81
2022/07/07 12:18:39;;;;;;;6.45;1.50;;;;;;;30.96;40.46;100408.91;4981363;28;20030;-80
2022/07/07 12:21:12;;;;;;;5.57;1.92;;;;;;;30.93;40.32;100404.00;4990541;28;20042;-82
2022/07/07 12:23:43;;;;;;;2.57;1.73;;;;;;;30.90;40.34;100404.59;4990181;28;20038;-79
2022/07/07 12:26:21;;;;;;;9.85;2.20;;;;;;;30.80;41.18;100398.47;4970206;28;20047;-80
2022/07/07 12:28:50;;;;;;;8.23;2.20;;;;;;;30.90;41.68;100401.03;4958401;29;20039;-83
2022/07/07 12:31:46;;;;;;;4.07;1.88;;;;;;;30.87;41.34;100404.38;4957821;29;20532;-80
2022/07/07 12:34:16;;;;;;;3.28;1.65;;;;;;;30.91;41.58;100391.72;4976132;29;20043;-79
2022/07/07 12:37:01;;;;;;;5.50;1.83;;;;;;;30.86;41.11;100403.56;4973048;28;20066;-80
2022/07/07 12:39:26;;;;;;;5.68;1.60;;;;;;;30.64;41.24;100387.78;4942748;29;20052;-79
2022/07/07 12:41:55;;;;;;;4.95;1.70;;;;;;;30.57;40.92;100383.78;4944852;29;20036;-77
2022/07/07 12:44:32;;;;;;;6.32;1.55;;;;;;;30.76;40.00;100376.38;4960297;29;20094;-78
2022/07/07 12:46:59;;;;;;;7.70;1.65;;;;;;;30.84;40.50;100369.41;4952505;29;20079;-82
2022/07/07 12:49:36;;;;;;;4.13;1.80;;;;;;;30.94;39.61;100372.78;4955873;29;20071;-81
2022/07/07 12:52:14;;;;;;;5.45;1.63;;;;;;;31.07;39.80;100366.56;4961259;29;20062;-85
2022/07/07 12:54:45;;;;;;;4.50;1.40;;;;;;;31.00;39.10;100377.09;4977599;28;20048;-85
2022/07/07 12:57:22;;;;;;;4.88;1.45;;;;;;;30.98;38.51;100370.28;4974269;29;20031;-86
2022/07/07 12:59:48;;;;;;;5.43;1.60;;;;;;;30.99;37.94;100372.72;4972416;29;20062;-83
2022/07/07 13:02:16;;;;;;;3.95;1.27;;;;;;;31.04;37.06;100378.13;4974651;29;20027;-88
2022/07/07 13:04:53;;;;;;;4.70;1.20;;;;;;;31.15;36.08;100365.88;4973898;29;20066;-88
2022/07/07 13:07:25;;;;;;;4.93;1.23;;;;;;;31.11;37.19;100372.25;4968624;29;20058;-85
2022/07/07 13:10:08;;;;;;;4.43;1.30;;;;;;;31.10;37.39;100365.13;4954863;29;20043;-84
2022/07/07 13:12:39;;;;;;;5.03;1.40;;;;;;;31.14;37.50;100361.50;4962333;29;20047;-86
2022/07/07 13:15:25;;;;;;;1.88;1.08;;;;;;;31.11;35.63;100367.59;4967237;28;20040;-86
2022/07/07 13:18:14;;;;;;;4.45;1.10;;;;;;;31.21;36.24;100364.66;4973627;29;20047;-81
2022/07/07 13:21:41;;;;;;;4.50;1.10;;;;;;;31.36;36.38;100359.97;5016200;23;20578;-81
2022/07/07 13:24:22;;;;;;;3.85;1.10;;;;;;;31.36;34.67;100357.25;5138799;23;20090;-80
2022/07/07 13:30:07;;;;;;;2.10;0.90;;;;;;;31.04;34.46;100358.94;5137782;23;20065;-84
2022/07/07 13:58:38;;;;;;;9.02;1.45;;;;;;;31.29;34.66;100329.47;4487941;23;20062;-83
2022/07/07 14:10:20;;;;;;;4.47;1.20;;;;;;;31.33;35.36;100303.06;5036907;28;20069;-87
2022/07/07 14:14:13;;;;;;;3.60;1.17;;;;;;;31.52;34.49;100303.81;5043018;22;20047;-86
2022/07/07 14:18:06;;;;;;;5.57;0.85;;;;;;;31.29;34.42;100302.09;5135212;23;20117;-86
2022/07/07 14:20:55;;;;;;;7.03;1.08;;;;;;;31.33;35.32;100297.59;5042710;28;20041;-87